Terminal Aerodrome Forecast
Issued by NWS Quad Cities IA IL

Home | Current Version | Previous Version | Text Only | Print | Product List | Glossary On
Versions: 1 2 3 4 5 6 7 8 9 10 11 12 13 14 15 16 17
213
FTUS43 KDVN 260520
TAFMLI
TAF
KMLI 260520Z 2606/2706 12009KT P6SM SCT250
     FM260900 14005KT 6SM BR BKN250
     FM261500 18008KT P6SM BKN100 PROB30 2621/2624 4SM TSRA BKN040CB
     FM270000 12004KT 5SM TSRA OVC035CB=

USA.gov is the U.S. government's official web portal to all federal, state and local government web resources and services.